Broussard, LA (70518)

2:33 AM CDT on September 02, 2014 (GMT -0500)
Millcreek Cove | Change Station
CLOSE
Current Station
Personal Weather Station
Location: Lafayette, LA
Elevation: 39 ft
Nearby Weather Stations

Elev 39 ft 30.13 °N, 92.04 °W | Updated 2 minutes ago

Clear
Clear
77.0 °F
Feels Like 78 °F
N
0.0
Wind Variable Wind from East

Today
High -- | Low -- °F
--% Chance of Precip.
Yesterday
High -- | Low -- °F
Precip. -- in
6:45 AM 7:29 PM
Waxing Crescent, 49% visible
Pressure 29.97 in
Visibility 10.0 miles
Clouds Clear
Heat Index 78 °F
Dew Point 77 °F
Humidity 99%
Rainfall 0.00 in
Snow Depth Not available.
UV 0 out of 12
Pollen 8.80 out of 12
Air Quality Not available.
Flu Activity Not available.
METAR KLFT 020653Z 15003KT 10SM CLR 26/25 A2997 RMK AO2 SLP149 T02560250 $

More Conditions Fewer Conditions

Pressure 29.97 in
Visibility 10.0 miles
Clouds Clear
Heat Index 78 °F
Dew Point 77 °F
Humidity 99%
Rainfall 0.00 in
Snow Depth Not available.
UV 0 out of 12
Pollen 8.80 out of 12
Air Quality Not available.
Flu Activity Not available.
METAR KLFT 020653Z 15003KT 10SM CLR 26/25 A2997 RMK AO2 SLP149 T02560250 $

More Conditions Fewer Conditions

10-Day Weather Forecast

Almanac

Astronomy

Sep. 02, 2014 Rise Set
Actual Time 6:45 AM CDT 7:29 PM CDT
Civil Twilight 6:20 AM CDT 7:53 PM CDT
Nautical Twilight 5:52 AM CDT 8:22 PM CDT
Astronomical Twilight 5:22 AM CDT 8:51 PM CDT
Moon 1:59 PM CDT 12:01 AM CDT
Length of Visible Light 13h 32m
Length of Day
12h 43m
Tomorrow will be 1m 45s shorter.
Waxing Crescent, 49% of the Moon is Illuminated
Today
Waxing Crescent
Sep 2
First Quarter
Sep 8
Full
Sep 15
Last Quarter
Sep 24
New

Today's Extremes

State Highs State Lows

Community

WunderPhotos

Upload Photos

1,749,589 photos uploaded!

WunderBlogs® & News

Nearby

Snow Depth

Station Depth Elevation
No new snow has been reported.

Earthquake Activity

City Distance Mag. Time & Date
No recent earthquake activity has been reported nearby.
Minimum magnitude displayed is 2.5.

Coastal Water Temperatures

Place Temperature
Fresh Water Canal Locks, LA 84.0 °F
Amerada Pass, LA 86.0 °F

Nearby Weather Stations